createdAt,value
2023-03-07T00:01:48.104Z,16.52
2023-03-07T00:04:14.965Z,14.43
2023-03-07T00:06:41.643Z,16.90
2023-03-07T00:09:09.218Z,14.75
2023-03-07T00:11:35.911Z,15.05
2023-03-07T00:14:07.111Z,15.15
2023-03-07T00:16:33.802Z,16.17
2023-03-07T00:19:00.729Z,17.65
2023-03-07T00:21:31.327Z,13.23
2023-03-07T00:23:57.985Z,15.50
2023-03-07T00:26:26.081Z,14.38
2023-03-07T00:28:54.725Z,16.92
2023-03-07T00:31:22.716Z,16.73
2023-03-07T00:33:49.644Z,14.73
2023-03-07T00:36:21.610Z,15.50
2023-03-07T00:38:49.278Z,17.10
2023-03-07T00:41:19.087Z,15.10
2023-03-07T00:43:47.333Z,15.07
2023-03-07T00:46:16.233Z,13.73
2023-03-07T00:48:43.264Z,13.60
2023-03-07T00:51:12.933Z,13.68
2023-03-07T00:53:40.413Z,14.13
2023-03-07T00:56:17.485Z,14.75
2023-03-07T00:58:45.645Z,14.20
2023-03-07T01:01:15.466Z,13.02
2023-03-07T01:03:42.586Z,14.93
2023-03-07T01:06:14.979Z,13.38
2023-03-07T01:08:41.899Z,14.93
2023-03-07T01:11:10.426Z,13.73
2023-03-07T01:13:38.117Z,13.95
2023-03-07T01:16:11.824Z,14.80
2023-03-07T01:18:39.722Z,13.38
2023-03-07T01:21:22.011Z,13.45
2023-03-07T01:23:49.553Z,16.85
2023-03-07T01:26:19.257Z,13.43
2023-03-07T01:28:47.416Z,12.27
2023-03-07T01:31:14.302Z,13.90
2023-03-07T01:33:41.307Z,13.95
2023-03-07T01:36:22.429Z,15.80
2023-03-07T01:38:49.897Z,14.73
2023-03-07T01:41:17.450Z,11.43
2023-03-07T01:43:46.186Z,14.07
2023-03-07T01:49:09.386Z,14.43
2023-03-07T01:51:40.538Z,13.65
2023-03-07T01:54:09.059Z,13.18
2023-03-07T01:56:37.876Z,16.15
2023-03-07T01:59:06.365Z,14.25
2023-03-07T02:01:33.830Z,16.48
2023-03-07T02:04:36.734Z,15.07
2023-03-07T02:07:03.890Z,13.50
2023-03-07T02:09:32.701Z,15.63
2023-03-07T02:12:01.625Z,12.88
2023-03-07T02:14:28.902Z,12.35
2023-03-07T02:16:55.974Z,14.50
2023-03-07T02:19:34.088Z,14.77
2023-03-07T02:22:17.559Z,13.80
2023-03-07T02:24:58.637Z,15.52
2023-03-07T02:27:26.882Z,13.57
2023-03-07T02:29:53.724Z,14.88
2023-03-07T02:32:20.944Z,13.25
2023-03-07T02:34:47.710Z,17.48
2023-03-07T02:37:27.285Z,15.95
2023-03-07T02:39:56.504Z,14.63
2023-03-07T02:42:27.960Z,13.73
2023-03-07T02:45:15.406Z,17.17
2023-03-07T02:47:44.137Z,13.45
2023-03-07T02:50:15.005Z,12.52
2023-03-07T02:52:44.755Z,14.60
2023-03-07T02:55:12.715Z,15.45
2023-03-07T02:57:46.070Z,15.82
2023-03-07T03:00:13.130Z,15.88
2023-03-07T03:02:39.903Z,13.68
2023-03-07T03:05:07.128Z,16.45
2023-03-07T03:07:33.801Z,14.55
2023-03-07T03:10:02.306Z,15.35
2023-03-07T03:12:31.661Z,17.33
2023-03-07T03:14:58.996Z,15.82
2023-03-07T03:17:26.172Z,14.68
2023-03-07T03:19:52.854Z,14.18
2023-03-07T03:22:20.567Z,16.35
2023-03-07T03:24:49.134Z,15.75
2023-03-07T03:27:17.259Z,14.23
2023-03-07T03:29:45.756Z,15.45
2023-03-07T03:32:13.275Z,18.00
2023-03-07T03:34:43.023Z,15.05
2023-03-07T03:37:09.735Z,16.67
2023-03-07T03:39:37.632Z,17.38
2023-03-07T03:42:06.122Z,15.95
2023-03-07T03:44:32.867Z,15.25
2023-03-07T03:46:59.676Z,16.25
2023-03-07T03:49:27.348Z,16.67
2023-03-07T03:51:54.894Z,14.07
2023-03-07T03:54:21.950Z,16.30
2023-03-07T03:56:48.684Z,15.10
2023-03-07T03:59:15.420Z,16.50
2023-03-07T04:01:42.667Z,17.23
2023-03-07T04:04:09.669Z,15.52
2023-03-07T04:06:37.536Z,17.27
2023-03-07T04:09:05.373Z,15.13
2023-03-07T04:11:32.996Z,13.38
2023-03-07T04:13:59.710Z,17.13
2023-03-07T04:16:27.029Z,14.93
2023-03-07T04:18:53.949Z,17.65
2023-03-07T04:21:21.867Z,16.10
2023-03-07T04:23:50.462Z,18.42
2023-03-07T04:26:17.751Z,17.40
2023-03-07T04:28:44.844Z,16.05
2023-03-07T04:31:19.728Z,16.42
2023-03-07T04:33:47.637Z,18.45
2023-03-07T04:36:16.321Z,18.15
2023-03-07T04:38:43.284Z,19.08
2023-03-07T04:41:21.525Z,17.90
2023-03-07T04:43:51.337Z,19.73
2023-03-07T04:46:19.342Z,18.02
2023-03-07T04:48:46.658Z,16.17
2023-03-07T04:51:13.953Z,16.38
2023-03-07T04:53:41.498Z,14.68
2023-03-07T04:56:09.804Z,19.23
2023-03-07T04:58:38.215Z,15.80
2023-03-07T05:01:06.014Z,16.33
2023-03-07T05:03:33.942Z,17.08
2023-03-07T05:06:03.247Z,14.00
2023-03-07T05:08:30.756Z,16.90
2023-03-07T05:10:57.797Z,15.77
2023-03-07T05:13:25.945Z,14.23
2023-03-07T05:15:54.689Z,16.75
2023-03-07T05:18:23.526Z,14.90
2023-03-07T05:20:51.643Z,13.90
2023-03-07T05:23:19.692Z,17.15
2023-03-07T05:25:48.458Z,16.38
2023-03-07T05:28:16.888Z,15.60
2023-03-07T05:30:45.170Z,16.27
2023-03-07T05:33:13.878Z,19.63
2023-03-07T05:35:41.147Z,14.15
2023-03-07T05:38:09.665Z,12.60
2023-03-07T05:40:36.658Z,13.15
2023-03-07T05:43:04.006Z,17.58
2023-03-07T05:45:31.438Z,13.00
2023-03-07T05:47:59.811Z,16.95
2023-03-07T05:50:26.798Z,14.63
2023-03-07T05:52:53.857Z,13.85
2023-03-07T05:55:21.168Z,13.77
2023-03-07T05:57:48.420Z,17.17
2023-03-07T06:00:16.075Z,14.45
2023-03-07T06:02:48.124Z,14.60
2023-03-07T06:05:16.012Z,13.55
2023-03-07T06:07:43.983Z,15.00
2023-03-07T06:10:13.778Z,13.80
2023-03-07T06:12:40.720Z,12.20
2023-03-07T06:15:08.936Z,18.10
2023-03-07T06:17:36.114Z,12.32
2023-03-07T06:20:04.129Z,14.25
2023-03-07T06:22:32.122Z,16.10
2023-03-07T06:25:01.106Z,15.93
2023-03-07T06:27:27.979Z,14.40
2023-03-07T06:29:55.038Z,12.45
2023-03-07T06:32:21.802Z,15.63
2023-03-07T06:34:48.638Z,12.48
2023-03-07T06:37:15.601Z,13.45
2023-03-07T06:39:42.816Z,14.27
2023-03-07T06:42:09.715Z,13.48
2023-03-07T06:44:36.501Z,15.05
2023-03-07T06:47:03.928Z,15.27
2023-03-07T06:49:30.812Z,15.90
2023-03-07T06:51:57.577Z,13.90
2023-03-07T06:54:24.499Z,15.55
2023-03-07T06:56:51.683Z,12.80
2023-03-07T06:59:25.467Z,13.77
2023-03-07T07:01:53.797Z,13.23
2023-03-07T07:04:22.257Z,13.70
2023-03-07T07:06:50.624Z,12.38
2023-03-07T07:09:17.944Z,11.85
2023-03-07T07:11:44.937Z,11.85
2023-03-07T07:14:12.932Z,10.77
2023-03-07T07:16:41.382Z,13.63
2023-03-07T07:19:09.931Z,16.48
2023-03-07T07:21:36.946Z,11.57
2023-03-07T07:24:04.812Z,14.63
2023-03-07T07:26:32.432Z,16.27
2023-03-07T07:29:00.557Z,13.95
2023-03-07T07:31:27.567Z,11.05
2023-03-07T07:33:54.494Z,12.88
2023-03-07T07:36:23.817Z,13.77
2023-03-07T07:38:51.946Z,12.60
2023-03-07T07:41:18.730Z,13.65
2023-03-07T07:43:48.285Z,17.42
2023-03-07T07:46:21.210Z,11.20
2023-03-07T07:48:48.620Z,11.55
2023-03-07T07:51:16.885Z,12.77
2023-03-07T07:53:43.814Z,12.98
2023-03-07T07:56:10.903Z,11.85
2023-03-07T07:58:37.803Z,12.68
2023-03-07T08:01:22.697Z,13.77
2023-03-07T08:03:49.558Z,14.38
2023-03-07T08:06:21.844Z,15.15
2023-03-07T08:08:49.752Z,14.25
2023-03-07T08:11:17.962Z,11.65
2023-03-07T08:13:45.161Z,16.33
2023-03-07T08:16:20.028Z,12.98
2023-03-07T08:18:55.967Z,12.73
2023-03-07T08:21:24.139Z,11.25
2023-03-07T08:23:51.962Z,13.65
2023-03-07T08:26:18.844Z,14.85
2023-03-07T08:28:46.757Z,12.25
2023-03-07T08:31:15.042Z,16.08
2023-03-07T08:33:42.062Z,14.63
2023-03-07T08:36:09.573Z,11.27
2023-03-07T08:38:36.330Z,14.13
2023-03-07T08:41:04.551Z,14.80
2023-03-07T08:43:32.812Z,14.10
2023-03-07T08:46:00.202Z,13.70
2023-03-07T08:48:27.379Z,15.35
2023-03-07T08:50:55.229Z,12.60
2023-03-07T08:53:22.930Z,11.02
2023-03-07T08:55:50.089Z,13.02
2023-03-07T08:58:16.822Z,14.38
2023-03-07T09:00:43.577Z,11.80
2023-03-07T09:03:10.618Z,10.95
2023-03-07T09:05:38.953Z,9.18
2023-03-07T09:08:07.648Z,10.70
2023-03-07T09:10:35.500Z,9.82
2023-03-07T09:13:02.301Z,13.30
2023-03-07T09:15:29.168Z,12.77
2023-03-07T09:17:56.076Z,11.05
2023-03-07T09:20:22.804Z,9.63
2023-03-07T09:22:51.636Z,9.77
2023-03-07T09:25:18.838Z,10.38
2023-03-07T09:27:45.705Z,9.65
2023-03-07T09:30:14.170Z,11.45
2023-03-07T09:32:41.158Z,8.88
2023-03-07T09:35:08.862Z,9.60
2023-03-07T09:37:35.815Z,9.60
2023-03-07T09:40:07.290Z,11.45
2023-03-07T09:42:49.984Z,12.82
2023-03-07T09:45:32.869Z,9.88
2023-03-07T09:48:35.016Z,12.23
2023-03-07T09:51:19.254Z,12.02
2023-03-07T09:54:10.694Z,8.95
2023-03-07T09:56:57.693Z,12.18
2023-03-07T09:59:35.492Z,10.85
2023-03-07T10:02:12.888Z,11.50
2023-03-07T10:05:04.543Z,11.45
2023-03-07T10:07:32.722Z,11.98
2023-03-07T10:10:06.586Z,9.15
2023-03-07T10:12:54.261Z,11.57
2023-03-07T10:15:42.528Z,11.95
2023-03-07T10:18:21.242Z,12.20
2023-03-07T10:21:24.775Z,11.70
2023-03-07T10:24:06.578Z,12.60
2023-03-07T10:26:37.410Z,10.82
2023-03-07T10:29:17.817Z,10.73
2023-03-07T10:31:51.929Z,11.10
2023-03-07T10:34:27.305Z,12.50
2023-03-07T10:37:09.148Z,9.23
2023-03-07T10:39:43.458Z,10.93
2023-03-07T10:42:13.784Z,11.50
2023-03-07T10:44:41.884Z,9.43
2023-03-07T10:47:22.746Z,9.68
2023-03-07T10:49:53.541Z,9.60
2023-03-07T10:52:41.208Z,9.98
2023-03-07T10:55:34.430Z,12.43
2023-03-07T10:58:20.113Z,16.85
2023-03-07T11:01:07.151Z,12.85
2023-03-07T11:03:53.458Z,11.57
2023-03-07T11:06:31.283Z,12.75
2023-03-07T11:09:07.538Z,9.25
2023-03-07T11:11:36.200Z,11.23
2023-03-07T11:14:14.050Z,13.40
2023-03-07T11:16:53.238Z,13.60
2023-03-07T11:19:42.705Z,11.63
2023-03-07T11:22:25.900Z,12.23
2023-03-07T11:27:31.689Z,14.40
2023-03-07T11:30:17.412Z,10.57
2023-03-07T11:32:58.655Z,13.82
2023-03-07T11:35:36.917Z,15.07
2023-03-07T11:38:15.361Z,10.88
2023-03-07T11:41:12.916Z,11.05
2023-03-07T11:43:44.545Z,11.85
2023-03-07T11:46:38.560Z,15.68
2023-03-07T11:49:38.970Z,12.45
2023-03-07T11:52:33.808Z,10.88
2023-03-07T11:55:15.845Z,14.95
2023-03-07T11:58:35.909Z,10.52
2023-03-07T12:01:26.413Z,11.30
2023-03-07T12:04:08.334Z,14.45
2023-03-07T12:07:00.177Z,11.32
2023-03-07T12:09:29.970Z,11.77
2023-03-07T12:12:30.670Z,10.82
2023-03-07T12:15:16.114Z,13.13
2023-03-07T12:18:04.211Z,11.35
2023-03-07T12:20:50.838Z,12.60
2023-03-07T12:23:27.835Z,10.23
2023-03-07T12:26:03.140Z,10.43
2023-03-07T12:28:42.826Z,14.63
2023-03-07T12:31:23.095Z,10.25
2023-03-07T12:34:11.981Z,11.27
2023-03-07T12:36:58.384Z,15.13
2023-03-07T12:39:51.910Z,8.77
2023-03-07T12:45:07.299Z,9.77
2023-03-07T12:47:52.255Z,11.52
2023-03-07T12:50:28.912Z,10.55
2023-03-07T12:53:22.588Z,10.23
2023-03-07T12:56:06.379Z,9.02
2023-03-07T12:58:42.208Z,9.32
2023-03-07T13:01:29.286Z,8.98
2023-03-07T13:04:05.633Z,7.68
2023-03-07T13:06:33.347Z,8.70
2023-03-07T13:09:03.874Z,8.30
2023-03-07T13:11:35.493Z,10.25
2023-03-07T13:14:06.147Z,9.10
2023-03-07T13:16:34.790Z,7.75
2023-03-07T13:19:39.279Z,5.97
2023-03-07T13:22:29.019Z,8.27
2023-03-07T13:25:14.826Z,7.40
2023-03-07T13:27:41.534Z,7.68
2023-03-07T13:30:08.275Z,6.57
2023-03-07T13:32:56.227Z,8.48
2023-03-07T13:35:29.402Z,8.77
2023-03-07T13:38:15.505Z,8.50
2023-03-07T13:40:46.543Z,7.10
2023-03-07T13:43:19.651Z,6.03
2023-03-07T13:45:50.676Z,8.73
2023-03-07T13:48:20.516Z,8.63
2023-03-07T13:50:53.178Z,8.45
2023-03-07T13:53:33.859Z,6.88
2023-03-07T13:56:09.841Z,7.88
2023-03-07T13:58:44.299Z,6.85
2023-03-07T14:01:21.723Z,6.35
2023-03-07T14:04:12.265Z,9.52
2023-03-07T14:06:43.009Z,7.93
2023-03-07T14:09:18.324Z,6.18
2023-03-07T14:11:58.808Z,6.45
2023-03-07T14:14:34.275Z,8.40
2023-03-07T14:17:35.868Z,5.47
2023-03-07T14:20:33.979Z,10.07
2023-03-07T14:23:00.679Z,9.82
2023-03-07T14:25:31.722Z,7.78
2023-03-07T14:28:05.563Z,7.93
2023-03-07T14:30:33.921Z,7.35
2023-03-07T14:33:01.394Z,6.38
2023-03-07T14:35:39.881Z,5.80
2023-03-07T14:38:09.188Z,6.43
2023-03-07T14:40:53.248Z,6.53
2023-03-07T14:43:43.632Z,8.73
2023-03-07T14:46:33.907Z,5.72
2023-03-07T14:49:19.135Z,7.97
2023-03-07T14:51:45.906Z,7.00
2023-03-07T14:54:25.166Z,5.38
2023-03-07T14:56:53.228Z,7.85
2023-03-07T14:59:28.613Z,6.07
2023-03-07T15:01:57.355Z,6.75
2023-03-07T15:04:28.756Z,7.13
2023-03-07T15:06:58.893Z,7.82
2023-03-07T15:09:26.493Z,6.45
2023-03-07T15:12:27.076Z,5.40
2023-03-07T15:14:58.582Z,4.82
2023-03-07T15:17:29.327Z,5.28
2023-03-07T15:20:02.637Z,6.93
2023-03-07T15:22:33.333Z,5.60
2023-03-07T15:25:00.315Z,6.32
2023-03-07T15:27:31.250Z,5.50
2023-03-07T15:30:00.506Z,6.68
2023-03-07T15:32:32.627Z,7.10
2023-03-07T15:35:20.741Z,10.27
2023-03-07T15:37:50.608Z,6.07
2023-03-07T15:40:23.219Z,7.03
2023-03-07T15:42:55.903Z,7.72
2023-03-07T15:45:34.297Z,6.00
2023-03-07T15:48:29.490Z,6.90
2023-03-07T15:50:59.992Z,7.82
2023-03-07T15:53:30.952Z,8.60
2023-03-07T15:56:03.700Z,7.78
2023-03-07T15:58:31.081Z,7.30
2023-03-07T16:01:24.172Z,6.18
2023-03-07T16:04:04.343Z,8.82
2023-03-07T16:06:43.175Z,5.43
2023-03-07T16:09:13.550Z,7.88
2023-03-07T16:11:41.038Z,5.30
2023-03-07T16:14:34.069Z,6.10
2023-03-07T16:17:15.920Z,6.43
2023-03-07T16:19:42.665Z,8.90
2023-03-07T16:22:15.044Z,6.88
2023-03-07T16:24:42.024Z,7.30
2023-03-07T16:27:20.675Z,5.90
2023-03-07T16:29:48.177Z,7.43
2023-03-07T16:32:20.290Z,7.68
2023-03-07T16:34:48.710Z,6.63
2023-03-07T16:37:15.640Z,8.38
2023-03-07T16:39:42.393Z,8.52
2023-03-07T16:42:23.036Z,7.22
2023-03-07T16:44:51.689Z,7.28
2023-03-07T16:47:18.488Z,8.32
2023-03-07T16:49:49.007Z,6.93
2023-03-07T16:52:15.805Z,9.73
2023-03-07T16:54:42.817Z,8.35
2023-03-07T16:57:17.046Z,7.32
2023-03-07T16:59:46.499Z,7.20
2023-03-07T17:02:19.277Z,7.80
2023-03-07T17:04:48.596Z,7.07
2023-03-07T17:07:21.889Z,7.85
2023-03-07T17:09:49.562Z,8.35
2023-03-07T17:12:20.593Z,6.68
2023-03-07T17:14:47.470Z,7.70
2023-03-07T17:17:28.376Z,8.55
2023-03-07T17:19:55.127Z,7.70
2023-03-07T17:22:21.906Z,8.27
2023-03-07T17:24:48.636Z,8.30
2023-03-07T17:27:16.514Z,11.48
2023-03-07T17:29:46.848Z,11.93
2023-03-07T17:32:13.846Z,15.55
2023-03-07T17:34:43.822Z,10.82
2023-03-07T17:37:12.031Z,9.45
2023-03-07T17:39:39.630Z,7.78
2023-03-07T17:42:06.937Z,7.50
2023-03-07T17:44:33.956Z,5.65
2023-03-07T17:47:00.843Z,9.05
2023-03-07T17:49:36.565Z,8.75
2023-03-07T17:52:05.784Z,6.45
2023-03-07T17:54:33.330Z,8.38
2023-03-07T17:57:00.171Z,8.80
2023-03-07T17:59:27.177Z,8.35
2023-03-07T18:01:54.040Z,9.48
2023-03-07T18:04:20.773Z,9.25
2023-03-07T18:06:47.624Z,7.10
2023-03-07T18:09:15.336Z,9.93
2023-03-07T18:11:42.245Z,7.65
2023-03-07T18:14:10.451Z,7.20
2023-03-07T18:16:37.215Z,9.30
2023-03-07T18:19:05.723Z,14.73
2023-03-07T18:21:33.806Z,8.50
2023-03-07T18:24:00.661Z,8.52
2023-03-07T18:26:27.972Z,9.48
2023-03-07T18:28:56.231Z,13.10
2023-03-07T18:31:25.759Z,10.52
2023-03-07T18:33:53.169Z,13.93
2023-03-07T18:36:22.047Z,14.00
2023-03-07T18:38:48.966Z,10.15
2023-03-07T18:41:18.476Z,11.63
2023-03-07T18:43:45.663Z,9.60
2023-03-07T18:46:18.726Z,13.85
2023-03-07T18:48:45.938Z,12.95
2023-03-07T18:51:16.125Z,8.05
2023-03-07T18:53:43.826Z,8.48
2023-03-07T18:56:16.935Z,10.82
2023-03-07T19:01:26.126Z,8.20
2023-03-07T19:03:55.054Z,10.38
2023-03-07T19:06:23.616Z,9.02
2023-03-07T19:08:50.811Z,9.45
2023-03-07T19:11:18.671Z,10.00
2023-03-07T19:13:45.551Z,7.03
2023-03-07T19:16:15.660Z,7.47
2023-03-07T19:18:43.284Z,8.73
2023-03-07T19:21:24.569Z,10.77
2023-03-07T19:23:55.980Z,12.95
2023-03-07T19:26:32.099Z,7.85
2023-03-07T19:28:58.878Z,10.38
2023-03-07T19:31:28.431Z,9.95
2023-03-07T19:33:55.924Z,9.50
2023-03-07T19:36:27.767Z,11.55
2023-03-07T19:38:56.356Z,10.95
2023-03-07T19:41:25.676Z,9.23
2023-03-07T19:43:53.182Z,11.15
2023-03-07T19:46:21.004Z,9.30
2023-03-07T19:48:48.221Z,10.60
2023-03-07T19:51:20.467Z,11.88
2023-03-07T19:53:48.085Z,8.30
2023-03-07T19:56:29.062Z,9.35
2023-03-07T19:58:57.111Z,7.57
2023-03-07T20:01:24.689Z,8.50
2023-03-07T20:03:51.680Z,8.27
2023-03-07T20:06:29.928Z,8.68
2023-03-07T20:08:57.876Z,9.48
2023-03-07T20:11:27.641Z,10.70
2023-03-07T20:13:56.177Z,7.70
2023-03-07T20:16:23.770Z,10.68
2023-03-07T20:18:51.868Z,9.48
2023-03-07T20:21:20.101Z,12.20
2023-03-07T20:23:48.426Z,8.73
2023-03-07T20:26:18.232Z,8.60
2023-03-07T20:28:45.936Z,9.60
2023-03-07T20:31:13.532Z,9.63
2023-03-07T20:33:45.996Z,9.35
2023-03-07T20:36:20.618Z,8.55
2023-03-07T20:38:55.553Z,7.82
2023-03-07T20:41:25.024Z,10.43
2023-03-07T20:43:53.092Z,10.27
2023-03-07T20:46:21.829Z,8.25
2023-03-07T20:48:51.901Z,5.88
2023-03-07T20:51:21.805Z,8.30
2023-03-07T20:53:51.023Z,6.25
2023-03-07T20:56:19.247Z,5.93
2023-03-07T20:58:46.555Z,5.20
2023-03-07T21:01:16.818Z,6.20
2023-03-07T21:03:43.577Z,7.22
2023-03-07T21:06:10.386Z,7.35
2023-03-07T21:08:38.256Z,8.18
2023-03-07T21:11:19.791Z,8.00
2023-03-07T21:13:48.891Z,9.18
2023-03-07T21:16:23.925Z,8.05
2023-03-07T21:18:50.926Z,6.43
2023-03-07T21:21:21.162Z,8.82
2023-03-07T21:23:48.616Z,6.10
2023-03-07T21:26:18.638Z,8.02
2023-03-07T21:28:45.471Z,7.22
2023-03-07T21:31:12.295Z,7.45
2023-03-07T21:33:40.681Z,7.43
2023-03-07T21:36:12.534Z,10.32
2023-03-07T21:38:41.740Z,6.97
2023-03-07T21:41:08.912Z,7.40
2023-03-07T21:43:36.078Z,7.97
2023-03-07T21:46:05.002Z,7.82
2023-03-07T21:48:32.145Z,7.50
2023-03-07T21:50:59.667Z,6.80
2023-03-07T21:53:26.691Z,7.18
2023-03-07T21:56:00.182Z,9.70
2023-03-07T21:58:27.920Z,6.60
2023-03-07T22:00:56.449Z,8.65
2023-03-07T22:03:25.537Z,7.72
2023-03-07T22:05:52.516Z,8.30
2023-03-07T22:08:20.443Z,8.10
2023-03-07T22:10:58.051Z,9.70
2023-03-07T22:13:24.891Z,10.13
2023-03-07T22:15:56.368Z,8.65
2023-03-07T22:18:23.743Z,9.32
2023-03-07T22:20:50.707Z,8.48
2023-03-07T22:23:17.637Z,7.50
2023-03-07T22:25:44.623Z,10.85
2023-03-07T22:28:11.362Z,9.65
2023-03-07T22:30:38.122Z,9.27
2023-03-07T22:33:04.868Z,9.77
2023-03-07T22:35:31.684Z,10.50
2023-03-07T22:37:58.416Z,10.75
2023-03-07T22:40:25.216Z,10.00
2023-03-07T22:42:52.486Z,12.82
2023-03-07T22:45:19.309Z,12.10
2023-03-07T22:47:46.062Z,9.90
2023-03-07T22:50:12.892Z,9.80
2023-03-07T22:52:39.757Z,16.20
2023-03-07T22:55:06.612Z,10.90
2023-03-07T22:57:33.370Z,14.55
2023-03-07T23:00:00.097Z,11.40
2023-03-07T23:02:26.890Z,13.15
2023-03-07T23:04:53.723Z,10.55
2023-03-07T23:07:20.494Z,12.98
2023-03-07T23:09:47.221Z,13.25
2023-03-07T23:12:13.984Z,9.45
2023-03-07T23:14:40.927Z,10.80
2023-03-07T23:17:07.706Z,11.07
2023-03-07T23:19:34.436Z,11.52
2023-03-07T23:22:01.169Z,10.48
2023-03-07T23:24:27.906Z,11.75
2023-03-07T23:26:54.699Z,11.80
2023-03-07T23:29:21.432Z,12.38
2023-03-07T23:31:48.186Z,14.27
2023-03-07T23:34:18.181Z,12.18
2023-03-07T23:36:45.658Z,12.80
2023-03-07T23:39:12.886Z,12.45
2023-03-07T23:41:39.656Z,11.77
2023-03-07T23:44:06.451Z,11.43
2023-03-07T23:46:33.776Z,13.23
2023-03-07T23:49:01.004Z,11.73
2023-03-07T23:51:28.095Z,11.18
2023-03-07T23:53:55.191Z,11.00
2023-03-07T23:56:22.246Z,12.55
2023-03-07T23:58:52.781Z,9.95
